Weather reports worldwide

Advertisment
Puebla Trives/San Mamede, Spain (8051): temperature & dewpoint: 19.08.2019 07:00:00 - 25.08.2019 07:00:00 (CEST)Puebla Trives/San Mamede, Spain (8051): wind speed & gusts: 19.08.2019 07:00:00 - 25.08.2019 07:00:00 (CEST)Puebla Trives/San Mamede, Spain (8051): wind direction: 19.08.2019 07:00:00 - 25.08.2019 07:00:00 (CEST)Puebla Trives/San Mamede, Spain (8051): visibility: 19.08.2019 07:00:00 - 25.08.2019 07:00:00 (CEST)Puebla Trives/San Mamede, Spain (8051): sunshine duration: 19.08.2019 07:00:00 - 25.08.2019 07:00:00 (CEST)Puebla Trives/San Mamede, Spain (8051): precipitation: 19.08.2019 07:00:00 - 25.08.2019 07:00:00 (CEST)
Date & Time tt [°C] td [°C] ff [km/h] ff [kn] fx [km/h] fx [kn] dd vv [km] sd [min] rr [mm]
25.08.2019 07:00:00 14,0 9,8 4 2 11 6 NW 3,3 0 0,0
25.08.2019 06:00:00 14,6 10,6 2 1 11 6 WSW 3,3 0 0,0
25.08.2019 05:00:00 15,8 11,0 5 3 21 11 WNW 3,4 0 0,0
25.08.2019 04:00:00 16,2 11,1 6 3 21 11 WNW 3,3 0 0,0
25.08.2019 03:00:00 16,9 11,2 9 5 19 10 WNW 3,3 0 0,0
25.08.2019 02:00:00 17,0 10,4 8 5 13 7 WNW 3,4 0 -
25.08.2019 01:00:00 18,3 10,9 5 3 13 7 WNW 3,4 0 0,0
25.08.2019 00:00:00 19,1 10,9 6 3 14 7 WSW 3,4 0 0,0
24.08.2019 23:00:00 20,6 11,0 5 3 27 15 NW 3,4 0 0,0
24.08.2019 22:00:00 21,9 10,0 10 6 25 13 W 3,4 0 0,0
24.08.2019 21:00:00 24,3 9,4 9 5 19 11 WSW 3,4 0 0,0
24.08.2019 20:00:00 26,6 9,4 7 4 18 10 W 3,5 34 -
24.08.2019 19:00:00 29,7 9,8 8 4 25 13 WNW 3,5 60 0,0
24.08.2019 18:00:00 30,7 10,6 8 5 27 15 W 3,3 60 0,0
24.08.2019 17:00:00 30,9 11,3 11 6 29 15 W 3,4 47 0,0
24.08.2019 16:00:00 31,4 10,6 11 6 27 15 W 3,0 59 0,0
24.08.2019 15:00:00 31,1 11,4 7 4 28 15 WSW 4,7 60 0,0
24.08.2019 14:00:00 31,2 8,3 9 5 22 12 W 3,8 52 -
24.08.2019 13:00:00 28,5 11,6 5 3 14 8 NNE 3,7 60 0,0
24.08.2019 12:00:00 26,1 11,1 5 3 11 6 E 3,6 60 0,0
24.08.2019 11:00:00 23,5 12,4 5 3 10 5 E 3,9 60 0,0
24.08.2019 10:00:00 20,5 11,1 3 1 12 6 W 4,0 41 0,0
24.08.2019 09:00:00 16,5 11,0 6 4 14 8 NW 4,0 0 0,0
24.08.2019 08:00:00 14,2 10,2 8 4 13 7 NW 4,0 0 -
24.08.2019 07:00:00 14,8 10,6 6 4 11 6 NW 3,9 0 0,0
24.08.2019 06:00:00 15,3 10,6 8 4 17 9 NW 4,0 0 0,0
24.08.2019 05:00:00 15,5 11,1 10 5 16 9 NW 3,9 0 0,0
24.08.2019 04:00:00 15,8 11,3 8 5 15 8 NW 3,9 0 0,0
24.08.2019 03:00:00 16,5 11,4 9 5 16 9 NW 3,9 0 0,0
24.08.2019 02:00:00 17,3 11,8 8 4 16 8 NW 3,9 0 -
24.08.2019 01:00:00 18,2 11,6 7 4 16 9 NW 4,0 0 0,0
24.08.2019 00:00:00 19,8 11,8 6 4 13 7 W 4,0 0 0,0
23.08.2019 23:00:00 21,8 11,2 9 5 23 13 W 4,0 0 0,0
23.08.2019 22:00:00 23,3 11,0 10 5 26 14 W 4,0 0 0,0
23.08.2019 21:00:00 25,5 10,2 6 4 19 10 W 3,4 0 0,0
23.08.2019 20:00:00 28,1 9,4 7 4 19 11 W 4,0 23 -
23.08.2019 19:00:00 31,2 6,2 6 3 16 9 W 3,8 46 0,0
23.08.2019 18:00:00 32,3 5,0 9 5 23 13 W 4,1 60 0,0
23.08.2019 17:00:00 32,2 5,6 7 4 21 11 SSW 3,7 60 0,0
23.08.2019 16:00:00 31,9 4,6 7 4 19 10 WSW 3,9 60 0,0
23.08.2019 15:00:00 30,9 6,7 6 3 18 10 N 3,8 60 0,0
23.08.2019 14:00:00 29,3 7,8 9 5 16 9 E 5 52 -
23.08.2019 13:00:00 27,1 8,5 6 3 14 8 E 3,7 60 0,0
23.08.2019 12:00:00 24,9 8,0 5 3 13 7 E 3,9 60 0,0
23.08.2019 11:00:00 22,0 7,7 3 2 8 5 NE 4,2 60 0,0
23.08.2019 10:00:00 18,7 7,7 5 3 11 6 NNW 3,9 43 0,0
23.08.2019 09:00:00 14,6 8,3 4 2 11 6 WNW 3,8 0 0,0
23.08.2019 08:00:00 12,4 8,1 8 4 11 6 NW 4,0 0 -
23.08.2019 07:00:00 12,6 8,1 7 4 13 7 NW 3,9 0 0,0
23.08.2019 06:00:00 13,3 8,4 6 4 14 8 WNW 4,0 0 0,0
23.08.2019 05:00:00 13,6 8,7 8 4 12 7 NW 4,0 0 0,0
23.08.2019 04:00:00 14,7 8,9 8 4 16 8 NW 4,0 0 0,0
23.08.2019 03:00:00 15,3 9,2 9 5 14 8 NW 3,9 0 0,0
23.08.2019 02:00:00 16,0 9,4 9 5 16 9 NW 3,9 0 -
23.08.2019 01:00:00 17,2 9,8 11 6 16 9 NW 4,0 0 0,0
23.08.2019 00:00:00 18,5 9,8 9 5 23 13 NW 4,0 0 0,0
22.08.2019 23:00:00 19,2 10,2 9 5 16 9 NW 4,0 0 0,0
22.08.2019 22:00:00 21,0 10,8 6 3 11 6 W 4,0 0 0,0
22.08.2019 21:00:00 24,3 10,2 4 2 7 4 W 4,0 0 0,0
22.08.2019 20:00:00 26,9 8,4 1 1 6 3 WSW 4,0 36 -
22.08.2019 19:00:00 30,3 8,1 4 2 13 7 ESE 4,3 60 0,0
22.08.2019 18:00:00 29,7 8,7 4 2 15 8 SE 4,1 56 0,0
22.08.2019 17:00:00 30,0 8,4 6 3 12 7 SSE 3,9 50 0,0
22.08.2019 16:00:00 29,0 9,7 4 2 16 9 E 3,9 52 0,0
22.08.2019 15:00:00 28,7 8,4 7 4 15 8 SE 1,9 58 0,0
22.08.2019 14:00:00 27,1 9,9 7 4 16 9 ESE 3,9 55 -
22.08.2019 13:00:00 25,2 10,3 8 5 17 9 ESE 4,2 60 0,0
22.08.2019 12:00:00 22,8 10,3 9 5 17 9 E 3,7 60 0,0
22.08.2019 11:00:00 20,3 10,6 9 5 16 9 ENE 3,9 60 0,0
22.08.2019 10:00:00 18,5 10,5 9 5 17 9 ENE 3,7 44 0,0
22.08.2019 09:00:00 16,0 10,8 7 4 20 11 ENE 3,9 1 0,0
22.08.2019 08:00:00 13,3 10,3 4 2 8 5 NE 3,6 0 -
22.08.2019 07:00:00 13,0 10,9 4 2 8 5 N 3,4 0 0,0
22.08.2019 06:00:00 11,8 10,4 6 3 10 6 NW 3,3 0 0,0
22.08.2019 05:00:00 12,1 10,3 6 4 11 6 NNW 3,4 0 0,0
22.08.2019 04:00:00 12,2 10,3 8 4 12 7 NNW 3,3 0 0,0
22.08.2019 03:00:00 13,4 11,1 4 2 11 6 N 3,3 0 0,0
22.08.2019 02:00:00 13,4 10,9 9 5 12 7 NW 3,4 0 -
22.08.2019 01:00:00 14,2 11,2 7 4 16 8 WNW 3,5 0 0,0
22.08.2019 00:00:00 15,6 12,1 6 4 22 12 WNW 3,5 0 0,0
21.08.2019 23:00:00 16,9 12,0 11 6 29 15 W 3,6 0 0,0
21.08.2019 22:00:00 18,4 12,1 11 6 26 14 W 3,6 0 0,0
21.08.2019 21:00:00 20,6 12,3 9 5 29 15 WSW 3,5 0 0,0
21.08.2019 20:00:00 23,0 12,3 10 5 27 15 W 3,5 37 -
21.08.2019 19:00:00 26,7 11,6 8 5 31 17 WNW 3,6 60 0,0
21.08.2019 18:00:00 27,6 8,5 7 4 23 13 NW 4,2 60 0,0
21.08.2019 17:00:00 27,5 8,9 9 5 21 11 NW 3,8 60 0,0
21.08.2019 16:00:00 27,1 6,5 5 3 14 8 N 2,3 60 0,0
21.08.2019 15:00:00 26,2 5,8 4 2 14 8 ESE 4,0 60 0,0
21.08.2019 14:00:00 24,8 7,0 5 3 13 7 NNE 4,2 55 -
21.08.2019 13:00:00 22,9 8,9 5 3 19 11 ENE 4,1 60 0,0
21.08.2019 12:00:00 20,7 9,3 8 4 17 9 E 4,3 60 0,0
21.08.2019 11:00:00 18,7 9,2 8 4 16 9 E 4,2 60 0,0
21.08.2019 10:00:00 15,9 9,0 4 2 9 5 ENE 4,2 40 0,0
21.08.2019 09:00:00 14,0 8,7 6 3 14 8 NE 4,1 0 0,0
21.08.2019 08:00:00 12,4 8,1 4 2 12 6 N 4,2 0 -
21.08.2019 07:00:00 13,0 8,5 5 3 12 6 ENE 4,1 0 0,0
21.08.2019 06:00:00 13,3 9,2 2 1 9 5 SE 4,1 0 0,0
21.08.2019 05:00:00 13,7 9,9 3 1 10 5 E 4,1 0 0,0
21.08.2019 04:00:00 14,1 10,3 4 2 15 8 ENE 4,1 0 0,0
21.08.2019 03:00:00 13,9 11,8 2 1 8 4 E 4,1 0 0,0
21.08.2019 02:00:00 14,3 11,8 2 1 13 7 W 4,0 0 -
21.08.2019 01:00:00 14,9 12,0 6 3 16 9 WNW 4,0 0 0,0
21.08.2019 00:00:00 15,6 12,1 10 6 25 14 W 4,0 0 0,0
20.08.2019 23:00:00 16,2 12,1 11 6 27 14 WNW 4,1 0 0,0
20.08.2019 22:00:00 17,4 12,3 11 6 27 14 W 4,0 0 0,0
20.08.2019 21:00:00 19,6 12,3 8 5 27 15 W 4,0 0 0,0
20.08.2019 20:00:00 22,4 11,8 11 6 25 14 W 4,1 38 -
20.08.2019 19:00:00 25,7 10,6 8 4 21 12 WNW 2,4 60 0,0
20.08.2019 18:00:00 25,1 8,9 3 2 20 11 ENE 4,4 59 0,0
20.08.2019 17:00:00 24,7 10,2 8 4 23 12 E 4,5 60 0,0
20.08.2019 16:00:00 23,9 11,6 8 4 21 11 ENE 4,4 60 0,0
20.08.2019 15:00:00 22,9 10,0 6 3 16 9 ENE 3,2 60 0,0
20.08.2019 14:00:00 21,6 10,2 8 4 19 10 ESE 4,3 55 -
20.08.2019 13:00:00 19,8 10,2 9 5 21 11 E 3,6 60 0,0
20.08.2019 12:00:00 17,9 10,8 9 5 23 12 ESE 3,8 60 0,0
20.08.2019 11:00:00 15,7 10,0 9 5 16 8 E 3,4 60 0,0
20.08.2019 10:00:00 14,1 10,9 4 2 9 5 ESE 3,4 40 0,0
20.08.2019 09:00:00 11,3 10,4 3 1 10 6 W 3,1 0 0,0
20.08.2019 08:00:00 9,0 8,3 7 4 12 6 NW 1,9 0 -
20.08.2019 07:00:00 8,9 8,1 4 2 13 7 WNW 0,6 0 0,0
20.08.2019 06:00:00 8,9 8,0 6 3 14 7 NW - 0 0,0
20.08.2019 05:00:00 9,3 8,3 6 4 11 6 WNW 3,1 0 0,0
20.08.2019 04:00:00 9,8 8,5 5 3 13 7 WNW 3,0 0 0,0
20.08.2019 03:00:00 10,3 8,8 5 3 16 9 WNW 3,0 0 0,0
20.08.2019 02:00:00 10,8 9,0 7 4 19 11 WNW 3,2 0 -
20.08.2019 01:00:00 11,6 9,7 10 5 22 12 WNW 3,2 0 0,0
20.08.2019 00:00:00 12,6 9,8 8 4 24 13 W 3,3 0 0,0
19.08.2019 23:00:00 13,6 10,0 12 6 29 16 W 3,4 0 0,0
19.08.2019 22:00:00 14,7 10,3 10 5 23 12 WSW 3,4 0 0,0
19.08.2019 21:00:00 16,1 10,9 10 5 31 17 WSW 3,4 0 0,0
19.08.2019 20:00:00 17,4 11,0 14 8 29 16 W 3,5 0 -
19.08.2019 19:00:00 19,0 11,1 11 6 29 16 WNW 3,4 21 0,0
19.08.2019 18:00:00 21,4 8,7 10 6 26 14 W 3,5 60 0,0
19.08.2019 17:00:00 21,8 9,0 9 5 24 13 W 3,4 60 0,0
19.08.2019 16:00:00 21,1 9,9 6 3 15 8 S 3,4 58 0,0
19.08.2019 15:00:00 19,7 11,7 5 3 15 8 NNW 3,5 34 0,0
19.08.2019 14:00:00 18,7 11,0 6 3 14 8 W 3,3 56 -
19.08.2019 13:00:00 17,0 10,4 4 2 13 7 ENE 3,3 60 0,0
19.08.2019 12:00:00 14,2 10,0 6 4 17 9 ENE 3,3 38 0,0
19.08.2019 11:00:00 13,3 10,5 7 4 13 7 E 3,6 25 0,0
19.08.2019 10:00:00 11,3 10,2 3 2 13 7 NW 3,2 0 0,0
19.08.2019 09:00:00 10,0 9,2 5 3 12 6 W 2,1 0 0,0
19.08.2019 08:00:00 9,3 8,5 5 3 14 8 W 1,8 0 -
19.08.2019 07:00:00 8,7 7,6 5 3 13 7 W 2,8 0 0,0

tt = temperature
td = dewpoint
ff = wind speed
fx = gusts
dd = wind direction
vv = visibility
sd = sunshine duration
rr = precipitation

Next stations